sensor_id;sensor_type;location;lat;lon;timestamp;temperature;humidity
76577;DHT22;65441;44.748;37.600;2023-07-31T00:01:36;20.83;73.95
76577;DHT22;65441;44.748;37.600;2023-07-31T00:04:05;20.77;74.54
76577;DHT22;65441;44.748;37.600;2023-07-31T00:06:33;20.70;72.06
76577;DHT22;65441;44.748;37.600;2023-07-31T00:09:01;20.76;73.73
76577;DHT22;65441;44.748;37.600;2023-07-31T00:11:29;20.58;72.22
76577;DHT22;65441;44.748;37.600;2023-07-31T00:13:58;20.77;72.32
76577;DHT22;65441;44.748;37.600;2023-07-31T00:16:26;20.99;72.73
76577;DHT22;65441;44.748;37.600;2023-07-31T00:18:54;20.71;73.22
76577;DHT22;65441;44.748;37.600;2023-07-31T00:21:23;20.88;71.84
76577;DHT22;65441;44.748;37.600;2023-07-31T00:23:52;21.13;72.64
76577;DHT22;65441;44.748;37.600;2023-07-31T00:26:20;21.35;72.37
76577;DHT22;65441;44.748;37.600;2023-07-31T00:28:48;21.11;70.46
76577;DHT22;65441;44.748;37.600;2023-07-31T00:31:16;21.08;70.77
76577;DHT22;65441;44.748;37.600;2023-07-31T00:33:44;21.21;70.46
76577;DHT22;65441;44.748;37.600;2023-07-31T00:36:12;21.16;72.05
76577;DHT22;65441;44.748;37.600;2023-07-31T00:38:42;20.98;71.39
76577;DHT22;65441;44.748;37.600;2023-07-31T00:41:10;20.92;72.32
76577;DHT22;65441;44.748;37.600;2023-07-31T00:43:38;20.88;74.47
76577;DHT22;65441;44.748;37.600;2023-07-31T00:46:07;20.50;73.65
76577;DHT22;65441;44.748;37.600;2023-07-31T00:48:36;20.92;72.61
76577;DHT22;65441;44.748;37.600;2023-07-31T00:51:05;20.85;74.76
76577;DHT22;65441;44.748;37.600;2023-07-31T00:53:36;20.84;72.50
76577;DHT22;65441;44.748;37.600;2023-07-31T00:56:06;21.02;74.15
76577;DHT22;65441;44.748;37.600;2023-07-31T00:58:34;20.95;72.99
76577;DHT22;65441;44.748;37.600;2023-07-31T01:01:02;21.03;74.80
76577;DHT22;65441;44.748;37.600;2023-07-31T01:03:30;20.86;72.32
76577;DHT22;65441;44.748;37.600;2023-07-31T01:06:06;20.94;75.96
76577;DHT22;65441;44.748;37.600;2023-07-31T01:08:42;20.70;73.28
76577;DHT22;65441;44.748;37.600;2023-07-31T01:11:16;20.53;73.93
76577;DHT22;65441;44.748;37.600;2023-07-31T01:13:47;20.46;73.64
76577;DHT22;65441;44.748;37.600;2023-07-31T01:16:15;20.47;73.35
76577;DHT22;65441;44.748;37.600;2023-07-31T01:18:43;20.11;75.45
76577;DHT22;65441;44.748;37.600;2023-07-31T01:21:23;20.25;73.97
76577;DHT22;65441;44.748;37.600;2023-07-31T01:24:13;19.89;76.31
76577;DHT22;65441;44.748;37.600;2023-07-31T01:26:54;20.22;75.31
76577;DHT22;65441;44.748;37.600;2023-07-31T01:29:29;19.76;77.24
76577;DHT22;65441;44.748;37.600;2023-07-31T01:32:02;19.98;76.60
76577;DHT22;65441;44.748;37.600;2023-07-31T01:34:32;20.13;77.63
76577;DHT22;65441;44.748;37.600;2023-07-31T01:37:00;20.02;75.92
76577;DHT22;65441;44.748;37.600;2023-07-31T01:39:28;19.86;76.44
76577;DHT22;65441;44.748;37.600;2023-07-31T01:41:58;19.89;75.50
76577;DHT22;65441;44.748;37.600;2023-07-31T01:44:27;19.99;77.40
76577;DHT22;65441;44.748;37.600;2023-07-31T01:46:55;20.03;76.45
76577;DHT22;65441;44.748;37.600;2023-07-31T01:49:23;20.10;77.94
76577;DHT22;65441;44.748;37.600;2023-07-31T01:51:51;20.14;75.14
76577;DHT22;65441;44.748;37.600;2023-07-31T01:54:20;20.06;75.73
76577;DHT22;65441;44.748;37.600;2023-07-31T01:56:48;19.88;76.44
76577;DHT22;65441;44.748;37.600;2023-07-31T01:59:17;19.69;76.61
76577;DHT22;65441;44.748;37.600;2023-07-31T02:01:45;19.71;78.24
76577;DHT22;65441;44.748;37.600;2023-07-31T02:04:13;19.80;76.37
76577;DHT22;65441;44.748;37.600;2023-07-31T02:06:43;19.99;75.60
76577;DHT22;65441;44.748;37.600;2023-07-31T02:09:11;19.86;79.13
76577;DHT22;65441;44.748;37.600;2023-07-31T02:11:39;19.80;78.24
76577;DHT22;65441;44.748;37.600;2023-07-31T02:14:07;20.00;76.88
76577;DHT22;65441;44.748;37.600;2023-07-31T02:16:37;20.07;75.57
76577;DHT22;65441;44.748;37.600;2023-07-31T02:19:06;20.15;76.35
76577;DHT22;65441;44.748;37.600;2023-07-31T02:21:34;20.24;77.49
76577;DHT22;65441;44.748;37.600;2023-07-31T02:24:02;20.29;78.27
76577;DHT22;65441;44.748;37.600;2023-07-31T02:26:30;20.41;77.11
76577;DHT22;65441;44.748;37.600;2023-07-31T02:28:58;20.64;77.54
76577;DHT22;65441;44.748;37.600;2023-07-31T02:31:26;20.62;74.22
76577;DHT22;65441;44.748;37.600;2023-07-31T02:33:56;20.62;76.69
76577;DHT22;65441;44.748;37.600;2023-07-31T02:36:24;20.73;76.48
76577;DHT22;65441;44.748;37.600;2023-07-31T02:38:52;20.76;75.95
76577;DHT22;65441;44.748;37.600;2023-07-31T02:41:20;20.93;75.37
76577;DHT22;65441;44.748;37.600;2023-07-31T02:43:48;20.68;76.29
76577;DHT22;65441;44.748;37.600;2023-07-31T02:46:17;20.88;76.81
76577;DHT22;65441;44.748;37.600;2023-07-31T02:48:45;20.88;77.63
76577;DHT22;65441;44.748;37.600;2023-07-31T02:51:15;21.01;76.62
76577;DHT22;65441;44.748;37.600;2023-07-31T02:53:43;21.06;78.07
76577;DHT22;65441;44.748;37.600;2023-07-31T02:56:11;21.15;76.83
76577;DHT22;65441;44.748;37.600;2023-07-31T02:58:39;21.04;74.89
76577;DHT22;65441;44.748;37.600;2023-07-31T03:01:07;21.07;75.63
76577;DHT22;65441;44.748;37.600;2023-07-31T03:03:36;21.24;74.44
76577;DHT22;65441;44.748;37.600;2023-07-31T03:06:07;21.11;77.21
76577;DHT22;65441;44.748;37.600;2023-07-31T03:08:38;21.16;76.88
76577;DHT22;65441;44.748;37.600;2023-07-31T03:11:06;20.88;76.28
76577;DHT22;65441;44.748;37.600;2023-07-31T03:13:34;21.21;75.03
76577;DHT22;65441;44.748;37.600;2023-07-31T03:16:03;20.96;76.32
76577;DHT22;65441;44.748;37.600;2023-07-31T03:18:31;21.18;76.24
76577;DHT22;65441;44.748;37.600;2023-07-31T03:20:59;21.46;74.92
76577;DHT22;65441;44.748;37.600;2023-07-31T03:23:27;21.39;74.13
76577;DHT22;65441;44.748;37.600;2023-07-31T03:25:58;21.46;73.95
76577;DHT22;65441;44.748;37.600;2023-07-31T03:28:29;21.66;70.48
76577;DHT22;65441;44.748;37.600;2023-07-31T03:30:57;22.02;70.16
76577;DHT22;65441;44.748;37.600;2023-07-31T03:33:25;22.28;69.74
76577;DHT22;65441;44.748;37.600;2023-07-31T03:35:53;22.65;67.96
76577;DHT22;65441;44.748;37.600;2023-07-31T03:38:21;22.79;68.51
76577;DHT22;65441;44.748;37.600;2023-07-31T03:40:50;22.99;68.33
76577;DHT22;65441;44.748;37.600;2023-07-31T03:43:20;23.18;68.69
76577;DHT22;65441;44.748;37.600;2023-07-31T03:45:48;23.41;64.56
76577;DHT22;65441;44.748;37.600;2023-07-31T03:48:16;23.62;65.75
76577;DHT22;65441;44.748;37.600;2023-07-31T03:50:44;23.82;64.33
76577;DHT22;65441;44.748;37.600;2023-07-31T03:53:12;24.12;63.25
76577;DHT22;65441;44.748;37.600;2023-07-31T03:55:41;24.38;62.33
76577;DHT22;65441;44.748;37.600;2023-07-31T03:58:09;24.65;61.93
76577;DHT22;65441;44.748;37.600;2023-07-31T04:00:39;24.91;61.46
76577;DHT22;65441;44.748;37.600;2023-07-31T04:03:08;25.01;58.35
76577;DHT22;65441;44.748;37.600;2023-07-31T04:05:38;25.30;59.38
76577;DHT22;65441;44.748;37.600;2023-07-31T04:08:06;25.49;56.89
76577;DHT22;65441;44.748;37.600;2023-07-31T04:10:34;25.58;57.62
76577;DHT22;65441;44.748;37.600;2023-07-31T04:13:02;25.79;55.94
76577;DHT22;65441;44.748;37.600;2023-07-31T04:15:31;25.99;55.47
76577;DHT22;65441;44.748;37.600;2023-07-31T04:18:00;26.08;54.96
76577;DHT22;65441;44.748;37.600;2023-07-31T04:20:28;26.27;54.06
76577;DHT22;65441;44.748;37.600;2023-07-31T04:22:56;26.41;53.05
76577;DHT22;65441;44.748;37.600;2023-07-31T04:25:25;26.37;52.85
76577;DHT22;65441;44.748;37.600;2023-07-31T04:27:53;26.48;53.01
76577;DHT22;65441;44.748;37.600;2023-07-31T04:30:21;26.48;51.88
76577;DHT22;65441;44.748;37.600;2023-07-31T04:32:49;26.79;51.24
76577;DHT22;65441;44.748;37.600;2023-07-31T04:35:19;26.98;50.95
76577;DHT22;65441;44.748;37.600;2023-07-31T04:37:47;27.17;50.98
76577;DHT22;65441;44.748;37.600;2023-07-31T04:40:16;27.32;48.73
76577;DHT22;65441;44.748;37.600;2023-07-31T04:42:44;27.29;50.40
76577;DHT22;65441;44.748;37.600;2023-07-31T04:45:13;27.59;49.53
76577;DHT22;65441;44.748;37.600;2023-07-31T04:47:41;27.44;49.53
76577;DHT22;65441;44.748;37.600;2023-07-31T04:50:10;27.91;49.74
76577;DHT22;65441;44.748;37.600;2023-07-31T04:52:39;28.12;48.72
76577;DHT22;65441;44.748;37.600;2023-07-31T04:55:12;28.48;48.68
76577;DHT22;65441;44.748;37.600;2023-07-31T04:57:40;28.57;46.45
76577;DHT22;65441;44.748;37.600;2023-07-31T05:00:09;28.50;46.04
76577;DHT22;65441;44.748;37.600;2023-07-31T05:02:37;28.79;45.18
76577;DHT22;65441;44.748;37.600;2023-07-31T05:05:06;28.54;45.49
76577;DHT22;65441;44.748;37.600;2023-07-31T05:07:34;28.57;47.02
76577;DHT22;65441;44.748;37.600;2023-07-31T05:10:05;28.93;45.09
76577;DHT22;65441;44.748;37.600;2023-07-31T05:12:34;28.88;45.94
76577;DHT22;65441;44.748;37.600;2023-07-31T05:15:02;29.30;46.02
76577;DHT22;65441;44.748;37.600;2023-07-31T05:17:30;29.72;45.12
76577;DHT22;65441;44.748;37.600;2023-07-31T05:19:58;30.11;43.49
76577;DHT22;65441;44.748;37.600;2023-07-31T05:22:26;30.41;43.95
76577;DHT22;65441;44.748;37.600;2023-07-31T05:24:55;30.66;43.24
76577;DHT22;65441;44.748;37.600;2023-07-31T05:27:24;30.94;42.90
76577;DHT22;65441;44.748;37.600;2023-07-31T05:29:53;31.13;41.78
76577;DHT22;65441;44.748;37.600;2023-07-31T05:32:21;31.38;39.83
76577;DHT22;65441;44.748;37.600;2023-07-31T05:34:51;31.50;42.00
76577;DHT22;65441;44.748;37.600;2023-07-31T05:37:19;31.42;39.90
76577;DHT22;65441;44.748;37.600;2023-07-31T05:39:48;31.67;39.15
76577;DHT22;65441;44.748;37.600;2023-07-31T05:42:17;31.46;41.17
76577;DHT22;65441;44.748;37.600;2023-07-31T05:44:47;31.58;40.07
76577;DHT22;65441;44.748;37.600;2023-07-31T05:47:15;31.69;38.98
76577;DHT22;65441;44.748;37.600;2023-07-31T05:49:44;31.95;38.03
76577;DHT22;65441;44.748;37.600;2023-07-31T05:52:12;31.79;38.33
76577;DHT22;65441;44.748;37.600;2023-07-31T05:54:42;31.59;39.75
76577;DHT22;65441;44.748;37.600;2023-07-31T05:57:10;31.82;39.47
76577;DHT22;65441;44.748;37.600;2023-07-31T05:59:38;31.73;38.95
76577;DHT22;65441;44.748;37.600;2023-07-31T06:02:10;32.01;38.29
76577;DHT22;65441;44.748;37.600;2023-07-31T06:04:38;32.12;38.49
76577;DHT22;65441;44.748;37.600;2023-07-31T06:07:06;31.95;38.04
76577;DHT22;65441;44.748;37.600;2023-07-31T06:09:35;32.13;38.11
76577;DHT22;65441;44.748;37.600;2023-07-31T06:12:06;32.32;36.51
76577;DHT22;65441;44.748;37.600;2023-07-31T06:14:36;32.32;36.37
76577;DHT22;65441;44.748;37.600;2023-07-31T06:17:04;32.67;37.25
76577;DHT22;65441;44.748;37.600;2023-07-31T06:19:34;32.70;36.08
76577;DHT22;65441;44.748;37.600;2023-07-31T06:22:07;32.38;37.02
76577;DHT22;65441;44.748;37.600;2023-07-31T06:24:37;32.74;35.95
76577;DHT22;65441;44.748;37.600;2023-07-31T06:27:06;32.52;35.35
76577;DHT22;65441;44.748;37.600;2023-07-31T06:29:36;32.24;35.87
76577;DHT22;65441;44.748;37.600;2023-07-31T06:32:05;31.87;36.39
76577;DHT22;65441;44.748;37.600;2023-07-31T06:34:36;31.86;36.40
76577;DHT22;65441;44.748;37.600;2023-07-31T06:37:06;32.44;35.85
76577;DHT22;65441;44.748;37.600;2023-07-31T06:39:34;32.55;36.39
76577;DHT22;65441;44.748;37.600;2023-07-31T06:42:03;32.69;36.27
76577;DHT22;65441;44.748;37.600;2023-07-31T06:44:32;32.99;36.11
76577;DHT22;65441;44.748;37.600;2023-07-31T06:47:00;32.77;35.34
76577;DHT22;65441;44.748;37.600;2023-07-31T06:49:31;33.25;35.21
76577;DHT22;65441;44.748;37.600;2023-07-31T06:52:00;33.74;34.31
76577;DHT22;65441;44.748;37.600;2023-07-31T06:54:29;33.87;33.85
76577;DHT22;65441;44.748;37.600;2023-07-31T06:56:59;34.08;33.63
76577;DHT22;65441;44.748;37.600;2023-07-31T06:59:27;33.71;34.66
76577;DHT22;65441;44.748;37.600;2023-07-31T07:01:56;33.40;32.93
76577;DHT22;65441;44.748;37.600;2023-07-31T07:04:24;33.50;33.70
76577;DHT22;65441;44.748;37.600;2023-07-31T07:06:54;33.35;34.60
76577;DHT22;65441;44.748;37.600;2023-07-31T07:09:25;33.15;34.09
76577;DHT22;65441;44.748;37.600;2023-07-31T07:11:56;32.89;35.44
76577;DHT22;65441;44.748;37.600;2023-07-31T07:14:27;33.23;35.43
76577;DHT22;65441;44.748;37.600;2023-07-31T07:16:55;33.19;35.02
76577;DHT22;65441;44.748;37.600;2023-07-31T07:19:27;33.00;34.43
76577;DHT22;65441;44.748;37.600;2023-07-31T07:21:57;32.83;35.40
76577;DHT22;65441;44.748;37.600;2023-07-31T07:24:30;32.29;35.50
76577;DHT22;65441;44.748;37.600;2023-07-31T07:26:58;32.39;36.55
76577;DHT22;65441;44.748;37.600;2023-07-31T07:29:26;32.39;34.87
76577;DHT22;65441;44.748;37.600;2023-07-31T07:31:56;31.81;36.34
76577;DHT22;65441;44.748;37.600;2023-07-31T07:34:27;31.42;36.63
76577;DHT22;65441;44.748;37.600;2023-07-31T07:36:55;31.13;37.99
76577;DHT22;65441;44.748;37.600;2023-07-31T07:39:23;31.57;36.79
76577;DHT22;65441;44.748;37.600;2023-07-31T07:41:57;31.69;35.95
76577;DHT22;65441;44.748;37.600;2023-07-31T07:44:26;32.05;37.24
76577;DHT22;65441;44.748;37.600;2023-07-31T07:46:59;32.58;34.94
76577;DHT22;65441;44.748;37.600;2023-07-31T07:49:28;32.74;34.91
76577;DHT22;65441;44.748;37.600;2023-07-31T07:52:00;33.31;34.37
76577;DHT22;65441;44.748;37.600;2023-07-31T07:54:28;33.42;34.31
76577;DHT22;65441;44.748;37.600;2023-07-31T07:56:58;32.91;32.86
76577;DHT22;65441;44.748;37.600;2023-07-31T07:59:28;33.29;33.72
76577;DHT22;65441;44.748;37.600;2023-07-31T08:01:56;33.64;33.20
76577;DHT22;65441;44.748;37.600;2023-07-31T08:04:27;33.49;33.34
76577;DHT22;65441;44.748;37.600;2023-07-31T08:06:55;33.61;32.63
76577;DHT22;65441;44.748;37.600;2023-07-31T08:09:25;34.45;31.51
76577;DHT22;65441;44.748;37.600;2023-07-31T08:11:59;34.84;31.98
76577;DHT22;65441;44.748;37.600;2023-07-31T08:14:32;34.95;29.43
76577;DHT22;65441;44.748;37.600;2023-07-31T08:17:06;34.86;29.19
76577;DHT22;65441;44.748;37.600;2023-07-31T08:19:36;34.48;30.42
76577;DHT22;65441;44.748;37.600;2023-07-31T08:22:07;34.15;30.16
76577;DHT22;65441;44.748;37.600;2023-07-31T08:24:41;34.29;29.71
76577;DHT22;65441;44.748;37.600;2023-07-31T08:27:11;34.35;30.64
76577;DHT22;65441;44.748;37.600;2023-07-31T08:29:43;33.95;31.57
76577;DHT22;65441;44.748;37.600;2023-07-31T08:32:13;34.09;32.96
76577;DHT22;65441;44.748;37.600;2023-07-31T08:34:42;34.70;31.29
76577;DHT22;65441;44.748;37.600;2023-07-31T08:37:11;35.12;31.28
76577;DHT22;65441;44.748;37.600;2023-07-31T08:39:40;34.97;29.80
76577;DHT22;65441;44.748;37.600;2023-07-31T08:42:16;35.28;29.19
76577;DHT22;65441;44.748;37.600;2023-07-31T08:44:50;35.49;29.29
76577;DHT22;65441;44.748;37.600;2023-07-31T08:47:21;35.71;28.71
76577;DHT22;65441;44.748;37.600;2023-07-31T08:49:55;35.84;27.64
76577;DHT22;65441;44.748;37.600;2023-07-31T08:52:27;36.06;29.09
76577;DHT22;65441;44.748;37.600;2023-07-31T08:54:56;36.03;27.63
76577;DHT22;65441;44.748;37.600;2023-07-31T08:57:31;36.22;28.64
76577;DHT22;65441;44.748;37.600;2023-07-31T09:00:04;36.32;28.54
76577;DHT22;65441;44.748;37.600;2023-07-31T09:02:34;36.31;28.57
76577;DHT22;65441;44.748;37.600;2023-07-31T09:05:06;36.51;28.07
76577;DHT22;65441;44.748;37.600;2023-07-31T09:07:37;36.47;28.71
76577;DHT22;65441;44.748;37.600;2023-07-31T09:10:08;36.25;27.89
76577;DHT22;65441;44.748;37.600;2023-07-31T09:12:41;36.42;27.67
76577;DHT22;65441;44.748;37.600;2023-07-31T09:15:12;36.37;28.34
76577;DHT22;65441;44.748;37.600;2023-07-31T09:17:43;36.39;27.84
76577;DHT22;65441;44.748;37.600;2023-07-31T09:20:16;36.75;27.67
76577;DHT22;65441;44.748;37.600;2023-07-31T09:22:49;36.52;28.33
76577;DHT22;65441;44.748;37.600;2023-07-31T09:25:23;36.71;26.94
76577;DHT22;65441;44.748;37.600;2023-07-31T09:27:56;36.54;28.52
76577;DHT22;65441;44.748;37.600;2023-07-31T09:30:29;36.27;28.16
76577;DHT22;65441;44.748;37.600;2023-07-31T09:33:06;36.74;27.27
76577;DHT22;65441;44.748;37.600;2023-07-31T09:35:36;36.66;27.09
76577;DHT22;65441;44.748;37.600;2023-07-31T09:38:09;36.96;26.39
76577;DHT22;65441;44.748;37.600;2023-07-31T09:40:42;36.91;27.68
76577;DHT22;65441;44.748;37.600;2023-07-31T09:43:16;36.46;26.01
76577;DHT22;65441;44.748;37.600;2023-07-31T09:45:54;36.48;27.52
76577;DHT22;65441;44.748;37.600;2023-07-31T09:48:27;36.70;27.35
76577;DHT22;65441;44.748;37.600;2023-07-31T09:51:04;36.93;26.37
76577;DHT22;65441;44.748;37.600;2023-07-31T09:53:38;36.70;27.21
76577;DHT22;65441;44.748;37.600;2023-07-31T09:56:07;36.81;27.67
76577;DHT22;65441;44.748;37.600;2023-07-31T09:58:38;37.04;26.33
76577;DHT22;65441;44.748;37.600;2023-07-31T10:01:08;36.90;26.79
76577;DHT22;65441;44.748;37.600;2023-07-31T10:03:39;37.06;25.88
76577;DHT22;65441;44.748;37.600;2023-07-31T10:06:11;37.22;26.41
76577;DHT22;65441;44.748;37.600;2023-07-31T10:08:46;36.83;26.21
76577;DHT22;65441;44.748;37.600;2023-07-31T10:11:23;36.18;27.18
76577;DHT22;65441;44.748;37.600;2023-07-31T10:14:00;35.23;28.74
76577;DHT22;65441;44.748;37.600;2023-07-31T10:16:33;34.47;29.93
76577;DHT22;65441;44.748;37.600;2023-07-31T10:19:05;34.78;30.71
76577;DHT22;65441;44.748;37.600;2023-07-31T10:21:40;35.56;28.55
76577;DHT22;65441;44.748;37.600;2023-07-31T10:24:15;35.94;27.72
76577;DHT22;65441;44.748;37.600;2023-07-31T10:26:51;35.98;27.05
76577;DHT22;65441;44.748;37.600;2023-07-31T10:29:25;36.23;28.22
76577;DHT22;65441;44.748;37.600;2023-07-31T10:32:00;35.30;27.93
76577;DHT22;65441;44.748;37.600;2023-07-31T10:34:33;34.49;29.09
76577;DHT22;65441;44.748;37.600;2023-07-31T10:37:26;34.91;28.72
76577;DHT22;65441;44.748;37.600;2023-07-31T10:40:01;35.07;30.36
76577;DHT22;65441;44.748;37.600;2023-07-31T10:42:34;34.90;30.14
76577;DHT22;65441;44.748;37.600;2023-07-31T10:45:10;34.54;31.09
76577;DHT22;65441;44.748;37.600;2023-07-31T10:47:45;35.08;30.18
76577;DHT22;65441;44.748;37.600;2023-07-31T10:50:21;35.71;29.19
76577;DHT22;65441;44.748;37.600;2023-07-31T10:52:51;35.26;28.61
76577;DHT22;65441;44.748;37.600;2023-07-31T10:55:30;34.54;30.10
76577;DHT22;65441;44.748;37.600;2023-07-31T10:58:05;34.01;31.44
76577;DHT22;65441;44.748;37.600;2023-07-31T11:00:40;34.07;30.99
76577;DHT22;65441;44.748;37.600;2023-07-31T11:03:14;33.91;32.46
76577;DHT22;65441;44.748;37.600;2023-07-31T11:05:47;34.34;31.86
76577;DHT22;65441;44.748;37.600;2023-07-31T11:08:23;34.75;30.72
76577;DHT22;65441;44.748;37.600;2023-07-31T11:11:10;34.26;30.82
76577;DHT22;65441;44.748;37.600;2023-07-31T11:13:48;34.00;33.09
76577;DHT22;65441;44.748;37.600;2023-07-31T11:16:22;33.99;32.31
76577;DHT22;65441;44.748;37.600;2023-07-31T11:18:53;34.36;31.87
76577;DHT22;65441;44.748;37.600;2023-07-31T11:21:28;34.84;31.14
76577;DHT22;65441;44.748;37.600;2023-07-31T11:24:02;35.48;29.90
76577;DHT22;65441;44.748;37.600;2023-07-31T11:26:35;35.75;27.87
76577;DHT22;65441;44.748;37.600;2023-07-31T11:29:14;35.28;29.35
76577;DHT22;65441;44.748;37.600;2023-07-31T11:31:48;34.53;31.12
76577;DHT22;65441;44.748;37.600;2023-07-31T11:34:22;34.52;31.03
76577;DHT22;65441;44.748;37.600;2023-07-31T11:36:56;34.80;30.56
76577;DHT22;65441;44.748;37.600;2023-07-31T11:39:29;35.18;30.45
76577;DHT22;65441;44.748;37.600;2023-07-31T11:42:04;35.00;28.95
76577;DHT22;65441;44.748;37.600;2023-07-31T11:44:46;34.69;29.40
76577;DHT22;65441;44.748;37.600;2023-07-31T11:47:19;34.67;29.27
76577;DHT22;65441;44.748;37.600;2023-07-31T11:49:53;35.20;30.10
76577;DHT22;65441;44.748;37.600;2023-07-31T11:52:26;35.31;29.51
76577;DHT22;65441;44.748;37.600;2023-07-31T11:54:59;35.38;29.15
76577;DHT22;65441;44.748;37.600;2023-07-31T11:57:34;35.59;27.83
76577;DHT22;65441;44.748;37.600;2023-07-31T12:00:10;35.62;29.35
76577;DHT22;65441;44.748;37.600;2023-07-31T12:02:44;35.67;28.97
76577;DHT22;65441;44.748;37.600;2023-07-31T12:05:19;35.77;29.29
76577;DHT22;65441;44.748;37.600;2023-07-31T12:07:54;35.98;27.98
76577;DHT22;65441;44.748;37.600;2023-07-31T12:10:30;35.81;30.06
76577;DHT22;65441;44.748;37.600;2023-07-31T12:13:06;35.96;29.10
76577;DHT22;65441;44.748;37.600;2023-07-31T12:15:44;35.92;28.46
76577;DHT22;65441;44.748;37.600;2023-07-31T12:18:22;35.66;27.48
76577;DHT22;65441;44.748;37.600;2023-07-31T12:20:56;35.26;28.63
76577;DHT22;65441;44.748;37.600;2023-07-31T12:23:31;34.75;29.77
76577;DHT22;65441;44.748;37.600;2023-07-31T12:26:04;35.05;29.58
76577;DHT22;65441;44.748;37.600;2023-07-31T12:28:42;34.92;29.71
76577;DHT22;65441;44.748;37.600;2023-07-31T12:31:16;35.12;28.73
76577;DHT22;65441;44.748;37.600;2023-07-31T12:33:51;35.15;29.88
76577;DHT22;65441;44.748;37.600;2023-07-31T12:36:22;35.20;29.54
76577;DHT22;65441;44.748;37.600;2023-07-31T12:38:57;34.73;29.87
76577;DHT22;65441;44.748;37.600;2023-07-31T12:41:26;34.20;30.49
76577;DHT22;65441;44.748;37.600;2023-07-31T12:44:02;34.12;31.54
76577;DHT22;65441;44.748;37.600;2023-07-31T12:46:35;34.53;30.50
76577;DHT22;65441;44.748;37.600;2023-07-31T12:49:09;34.79;31.59
76577;DHT22;65441;44.748;37.600;2023-07-31T12:51:39;34.54;33.61
76577;DHT22;65441;44.748;37.600;2023-07-31T12:54:09;34.38;37.59
76577;DHT22;65441;44.748;37.600;2023-07-31T12:56:41;34.51;36.70
76577;DHT22;65441;44.748;37.600;2023-07-31T12:59:13;34.54;33.25
76577;DHT22;65441;44.748;37.600;2023-07-31T13:01:44;34.36;36.14
76577;DHT22;65441;44.748;37.600;2023-07-31T13:04:18;34.07;37.80
76577;DHT22;65441;44.748;37.600;2023-07-31T13:06:49;33.77;38.59
76577;DHT22;65441;44.748;37.600;2023-07-31T13:09:22;34.01;36.18
76577;DHT22;65441;44.748;37.600;2023-07-31T13:11:52;33.77;35.33
76577;DHT22;65441;44.748;37.600;2023-07-31T13:14:23;33.96;35.24
76577;DHT22;65441;44.748;37.600;2023-07-31T13:16:56;33.87;36.44
76577;DHT22;65441;44.748;37.600;2023-07-31T13:19:30;33.70;37.48
76577;DHT22;65441;44.748;37.600;2023-07-31T13:22:00;33.31;39.04
76577;DHT22;65441;44.748;37.600;2023-07-31T13:24:28;33.31;39.33
76577;DHT22;65441;44.748;37.600;2023-07-31T13:27:03;33.61;37.94
76577;DHT22;65441;44.748;37.600;2023-07-31T13:29:34;33.75;38.85
76577;DHT22;65441;44.748;37.600;2023-07-31T13:32:06;33.63;34.55
76577;DHT22;65441;44.748;37.600;2023-07-31T13:34:39;33.64;32.57
76577;DHT22;65441;44.748;37.600;2023-07-31T13:37:09;33.81;33.65
76577;DHT22;65441;44.748;37.600;2023-07-31T13:39:43;33.63;32.91
76577;DHT22;65441;44.748;37.600;2023-07-31T13:42:18;33.83;34.08
76577;DHT22;65441;44.748;37.600;2023-07-31T13:44:50;33.59;33.41
76577;DHT22;65441;44.748;37.600;2023-07-31T13:47:21;33.76;32.03
76577;DHT22;65441;44.748;37.600;2023-07-31T13:49:57;33.77;31.99
76577;DHT22;65441;44.748;37.600;2023-07-31T13:52:28;33.77;32.12
76577;DHT22;65441;44.748;37.600;2023-07-31T13:54:57;33.78;31.89
76577;DHT22;65441;44.748;37.600;2023-07-31T13:57:27;33.99;32.43
76577;DHT22;65441;44.748;37.600;2023-07-31T14:00:02;34.02;31.19
76577;DHT22;65441;44.748;37.600;2023-07-31T14:02:34;33.78;33.03
76577;DHT22;65441;44.748;37.600;2023-07-31T14:05:08;33.68;32.90
76577;DHT22;65441;44.748;37.600;2023-07-31T14:07:37;33.51;32.85
76577;DHT22;65441;44.748;37.600;2023-07-31T14:10:09;33.51;32.72
76577;DHT22;65441;44.748;37.600;2023-07-31T14:12:39;33.43;32.59
76577;DHT22;65441;44.748;37.600;2023-07-31T14:15:13;33.40;34.01
76577;DHT22;65441;44.748;37.600;2023-07-31T14:17:46;33.13;37.51
76577;DHT22;65441;44.748;37.600;2023-07-31T14:20:19;32.87;40.85
76577;DHT22;65441;44.748;37.600;2023-07-31T14:22:49;32.68;42.71
76577;DHT22;65441;44.748;37.600;2023-07-31T14:25:19;32.82;41.80
76577;DHT22;65441;44.748;37.600;2023-07-31T14:27:50;32.89;42.08
76577;DHT22;65441;44.748;37.600;2023-07-31T14:30:22;32.79;41.73
76577;DHT22;65441;44.748;37.600;2023-07-31T14:32:55;32.69;42.68
76577;DHT22;65441;44.748;37.600;2023-07-31T14:35:26;32.66;44.35
76577;DHT22;65441;44.748;37.600;2023-07-31T14:37:55;32.40;42.36
76577;DHT22;65441;44.748;37.600;2023-07-31T14:40:29;32.12;45.86
76577;DHT22;65441;44.748;37.600;2023-07-31T14:42:58;32.00;45.71
76577;DHT22;65441;44.748;37.600;2023-07-31T14:45:29;31.99;42.63
76577;DHT22;65441;44.748;37.600;2023-07-31T14:48:03;32.20;38.92
76577;DHT22;65441;44.748;37.600;2023-07-31T14:50:36;32.47;36.45
76577;DHT22;65441;44.748;37.600;2023-07-31T14:53:10;32.52;36.05
76577;DHT22;65441;44.748;37.600;2023-07-31T14:55:41;32.57;36.94
76577;DHT22;65441;44.748;37.600;2023-07-31T14:58:11;32.59;36.15
76577;DHT22;65441;44.748;37.600;2023-07-31T15:00:48;32.57;35.21
76577;DHT22;65441;44.748;37.600;2023-07-31T15:03:17;32.49;35.76
76577;DHT22;65441;44.748;37.600;2023-07-31T15:05:48;32.43;35.89
76577;DHT22;65441;44.748;37.600;2023-07-31T15:08:19;32.46;35.66
76577;DHT22;65441;44.748;37.600;2023-07-31T15:10:49;32.35;35.50
76577;DHT22;65441;44.748;37.600;2023-07-31T15:13:24;32.07;46.62
76577;DHT22;65441;44.748;37.600;2023-07-31T15:15:54;31.61;49.92
76577;DHT22;65441;44.748;37.600;2023-07-31T15:18:24;31.29;50.09
76577;DHT22;65441;44.748;37.600;2023-07-31T15:20:56;31.19;49.98
76577;DHT22;65441;44.748;37.600;2023-07-31T15:23:27;31.08;46.93
76577;DHT22;65441;44.748;37.600;2023-07-31T15:25:56;31.29;40.52
76577;DHT22;65441;44.748;37.600;2023-07-31T15:28:26;31.34;39.49
76577;DHT22;65441;44.748;37.600;2023-07-31T15:30:55;31.13;41.81
76577;DHT22;65441;44.748;37.600;2023-07-31T15:33:23;30.99;43.89
76577;DHT22;65441;44.748;37.600;2023-07-31T15:35:51;30.80;44.84
76577;DHT22;65441;44.748;37.600;2023-07-31T15:38:23;30.77;45.15